Flight Track Log - Related Links

Times and Time Zones

All times are in EDT time to prevent confusion due to time zone crossing. See the USC110 flight status page for this flight to view local times or setup timezone preferences in your user account.

Time Position Orientation Groundspeed Altitude Reporting Facility
EDT Latitude Longitude Course Direction KTS MPH feet Rate Location/Type
Tue 12:25:31 AM 35.2100 -80.9528 78° East 77 89 1,400  Level Atlanta Center
Tue 12:26:26 AM 35.2156 -80.9194 78° East 126 145 2,300 1,046 Climbing Atlanta Center
Tue 12:27:20 AM 35.2167 -80.8814 88° East 143 165 3,300 1,148 Climbing Atlanta Center
Tue 12:28:21 AM 35.2194 -80.8356 86° East 137 158 4,500 1,140 Climbing Atlanta Center
Tue 12:29:21 AM 35.2506 -80.8242 17° North 123 142 5,600 1,140 Climbing Atlanta Center
Tue 12:30:22 AM 35.2844 -80.8406 338° Northwest 125 144 6,800 1,099 Climbing Atlanta Center
Tue 12:31:32 AM 35.3181 -80.8519 345° North 123 142 8,000 554 Climbing Atlanta Center
Tue 12:32:32 AM 35.3558 -80.8658 343° North 137 158 8,000  Level Atlanta Center
Tue 12:33:32 AM 35.4003 -80.8894 337° Northwest 156 180 8,000  Level Atlanta Center
Tue 12:34:32 AM 35.4447 -80.9083 341° North 156 180 8,000  Level Atlanta Center
Tue 12:35:32 AM 35.4869 -80.9244 343° North 156 180 8,000  Level Atlanta Center
Tue 12:36:32 AM 35.5311 -80.9433 341° North 161 185 8,000  Level Atlanta Center
Tue 12:37:32 AM 35.5753 -80.9619 341° North 161 185 8,000  Level Atlanta Center
Tue 12:38:32 AM 35.6175 -80.9833 338° Northwest 166 191 8,000  Level Atlanta Center
Tue 12:39:32 AM 35.6619 -81.0022 341° North 166 191 8,000  Level Atlanta Center
Tue 12:40:32 AM 35.7061 -81.0236 339° North 166 191 8,000 -50 Level Atlanta Center
Tue 12:41:32 AM 35.7567 -81.0422 343° North 171 197 7,900 -50 Descending Atlanta Center
Tue 12:42:32 AM 35.8011 -81.0636 339° North 171 197 7,900  Level Atlanta Center
Tue 12:43:32 AM 35.8453 -81.0825 341° North 171 197 7,900  Level Atlanta Center
Tue 12:44:32 AM 35.8875 -81.1014 340° North 171 197 7,900  Level Atlanta Center
Tue 12:45:32 AM 35.9339 -81.1203 342° North 171 197 7,900  Level Atlanta Center
Tue 12:46:32 AM 35.9761 -81.1419 337° Northwest 171 197 7,900 50 Level Atlanta Center
Tue 12:47:32 AM 36.0183 -81.1608 340° North 171 197 8,000 50 Climbing Atlanta Center
Tue 12:48:32 AM 36.0625 -81.1797 341° North 171 197 8,000  Level Atlanta Center
Tue 12:49:32 AM 36.1067 -81.1989 341° North 171 197 8,000  Level Atlanta Center
Tue 12:50:32 AM 36.1508 -81.2153 343° North 171 197 8,000  Level Atlanta Center
Tue 12:51:32 AM 36.1953 -81.2344 341° North 171 197 8,000  Level Atlanta Center
Tue 12:52:32 AM 36.2417 -81.2558 340° North 171 197 8,000  Level Atlanta Center
Tue 12:53:32 AM 36.2794 -81.2753 337° Northwest 171 197 8,000  Level Atlanta Center
Tue 12:54:32 AM 36.3278 -81.2942 343° North 171 197 8,000  Level Atlanta Center
Tue 12:55:32 AM 36.3722 -81.3133 341° North 171 197 8,000  Level Atlanta Center
Tue 12:56:32 AM 36.4142 -81.3325 340° North 171 197 8,000  Level Atlanta Center
Tue 12:57:32 AM 36.4628 -81.3542 340° North 171 197 8,000  Level Atlanta Center
Tue 12:58:32 AM 36.5069 -81.3706 343° North 171 197 8,000  Level Atlanta Center
Tue 12:59:32 AM 36.5511 -81.3950 336° Northwest 171 197 8,000  Level Atlanta Center
Tue 01:00:32 AM 36.5997 -81.4192 338° Northwest 171 197 8,000 -50 Level Atlanta Center
Tue 01:01:32 AM 36.6458 -81.4358 344° North 171 197 7,900 -50 Descending Atlanta Center
Tue 01:02:32 AM 36.6922 -81.4550 342° North 171 197 7,900  Level Atlanta Center
Tue 01:03:32 AM 36.7364 -81.4794 336° Northwest 171 197 7,900 37 Level Atlanta Center
Tue 01:05:13 AM 36.8069 -81.5108 340° North 172 198 8,000  Climbing Indianapolis Center
Tue 01:06:14 AM 36.8547 -81.5308 341° North 173 199 7,900 -50 Descending Indianapolis Center
Tue 01:07:14 AM 36.9008 -81.5522 340° North 175 201 7,900  Level Indianapolis Center
Tue 01:08:15 AM 36.9458 -81.5733 339° North 174 200 7,900  Level Indianapolis Center
Tue 01:09:16 AM 36.9911 -81.5900 344° North 172 198 7,900 50 Level Indianapolis Center
Tue 01:10:16 AM 37.0397 -81.5883 North 170 196 8,000 50 Climbing Indianapolis Center
Tue 01:11:17 AM 37.0881 -81.5906 358° North 171 197 8,000  Level Indianapolis Center
Tue 01:12:17 AM 37.1344 -81.5886 North 168 193 8,000  Level Indianapolis Center
Tue 01:13:18 AM 37.1825 -81.5858 North 170 196 8,000  Level Indianapolis Center
Tue 01:14:18 AM 37.2389 -81.5867 359° North 172 198 8,000  Level Indianapolis Center
Tue 01:15:19 AM 37.2861 -81.5806 North 172 198 8,000  Level Indianapolis Center
Tue 01:16:19 AM 37.3344 -81.5781 North 173 199 8,000  Level Indianapolis Center
Tue 01:17:20 AM 37.3814 -81.5769 North 170 196 8,000  Level Indianapolis Center
Tue 01:18:20 AM 37.4308 -81.5736 North 175 201 8,000  Level Indianapolis Center
Tue 01:19:21 AM 37.4786 -81.5747 359° North 172 198 8,000  Level Indianapolis Center
Tue 01:20:22 AM 37.5264 -81.5708 North 171 197 8,000  Level Indianapolis Center
Tue 01:21:22 AM 37.5744 -81.5672 North 171 197 8,000  Level Indianapolis Center
Tue 01:22:23 AM 37.6231 -81.5653 North 174 200 8,000  Level Indianapolis Center
Tue 01:23:23 AM 37.6708 -81.5633 North 171 197 8,000  Level Indianapolis Center
Tue 01:24:24 AM 37.7183 -81.5625 North 171 197 8,000  Level Indianapolis Center
Tue 01:25:24 AM 37.7664 -81.5631 359° North 171 197 8,000  Level Indianapolis Center
Tue 01:26:25 AM 37.8136 -81.5636 359° North 171 197 8,000 -50 Level Indianapolis Center
Tue 01:27:25 AM 37.8639 -81.5625 North 171 197 7,900 -50 Descending Indianapolis Center
Tue 01:28:25 AM 37.9117 -81.5631 359° North 171 197 7,900  Level Indianapolis Center
Tue 01:29:26 AM 37.9600 -81.5597 North 175 201 7,900  Level Indianapolis Center
Tue 01:30:26 AM 38.0078 -81.5608 359° North 170 196 7,900  Level Indianapolis Center
Tue 01:31:27 AM 38.0550 -81.5619 359° North 171 197 7,900  Level Indianapolis Center
Tue 01:32:27 AM 38.1053 -81.5611 North 178 205 7,900  Level Indianapolis Center
Tue 01:33:28 AM 38.1533 -81.5617 359° North 174 200 7,900  Level Indianapolis Center
Tue 01:34:28 AM 38.2014 -81.5608 North 171 197 7,900  Level Indianapolis Center
Tue 01:35:29 AM 38.2492 -81.5594 North 171 197 7,900  Level Indianapolis Center
Tue 01:36:29 AM 38.2972 -81.5600 359° North 172 198 7,900  Level Indianapolis Center
Tue 01:37:29 AM 38.3453 -81.5600 360° North 174 200 7,900  Level Indianapolis Center
Tue 01:38:30 AM 38.3908 -81.5744 346° North 175 201 7,900  Level Indianapolis Center
Tue 01:39:30 AM 38.4217 -81.6164 313° West 165 190 7,900  Level Indianapolis Center
Tue 01:40:31 AM 38.4600 -81.6500 326° Northwest 164 189 7,900  Level Indianapolis Center
Tue 01:41:31 AM 38.4964 -81.6847 323° Northwest 164 189 7,900  Level Indianapolis Center
Tue 01:42:32 AM 38.5344 -81.7183 325° Northwest 164 189 7,900 50 Level Indianapolis Center
Tue 01:43:32 AM 38.5714 -81.7528 324° Northwest 163 188 8,000  Climbing Indianapolis Center
Tue 01:44:32 AM 38.6078 -81.7881 323° Northwest 162 186 7,900 -50 Descending Indianapolis Center
Tue 01:45:33 AM 38.6450 -81.8214 325° Northwest 162 186 7,900  Level Indianapolis Center
Tue 01:46:33 AM 38.6828 -81.8533 327° Northwest 161 185 7,900  Level Indianapolis Center
Tue 01:47:34 AM 38.7233 -81.8797 333° Northwest 162 186 7,900  Level Indianapolis Center
Tue 01:48:34 AM 38.7633 -81.9075 332° Northwest 162 186 7,900  Level Indianapolis Center
Tue 01:49:34 AM 38.8047 -81.9339 334° Northwest 165 190 7,900  Level Indianapolis Center
Tue 01:50:35 AM 38.8464 -81.9622 332° Northwest 168 193 7,900  Level Indianapolis Center
Tue 01:51:35 AM 38.8881 -81.9900 333° Northwest 168 193 7,900 50 Level Indianapolis Center
Tue 01:52:35 AM 38.9286 -82.0178 332° Northwest 167 192 8,000 50 Climbing Indianapolis Center
Tue 01:53:36 AM 38.9717 -82.0408 337° Northwest 167 192 8,000 -50 Level Indianapolis Center
Tue 01:54:36 AM 39.0144 -82.0681 334° Northwest 169 194 7,900  Descending Indianapolis Center
Tue 01:55:36 AM 39.0561 -82.0936 335° Northwest 167 192 8,000  Climbing Indianapolis Center
Tue 01:56:36 AM 39.0981 -82.1183 335° Northwest 166 191 7,900 -50 Descending Indianapolis Center
Tue 01:57:37 AM 39.1411 -82.1439 335° Northwest 168 193 7,900  Level Indianapolis Center
Tue 01:58:37 AM 39.1822 -82.1706 333° Northwest 166 191 7,900 50 Level Indianapolis Center
Tue 01:59:37 AM 39.2142 -82.2122 315° West 164 189 8,000 50 Climbing Indianapolis Center
Tue 02:00:38 AM 39.2458 -82.2514 316° Northwest 160 184 8,000  Level Indianapolis Center
Tue 02:01:38 AM 39.2803 -82.2900 319° Northwest 162 186 8,000  Level Indianapolis Center
Tue 02:02:23 AM 39.3086 -82.3228 318° Northwest 165 190 8,000  Level Indianapolis Center
Tue 02:02:53 AM 39.3242 -82.3406 319° Northwest 164 189 8,000  Level Indianapolis Center
Tue 02:03:38 AM 39.3464 -82.3706 314° West 162 186 8,000  Level Indianapolis Center
Tue 02:04:39 AM 39.3794 -82.4092 318° Northwest 161 185 8,000  Level Indianapolis Center
Tue 02:05:39 AM 39.4125 -82.4481 318° Northwest 160 184 8,000  Level Indianapolis Center
Tue 02:06:39 AM 39.4453 -82.4856 319° Northwest 160 184 8,000  Level Indianapolis Center
Tue 02:07:39 AM 39.4781 -82.5256 317° Northwest 160 184 8,000 -397 Level Indianapolis Center
Tue 02:08:40 AM 39.5125 -82.5689 316° Northwest 168 193 7,200 -843 Descending Indianapolis Center
Tue 02:09:40 AM 39.5528 -82.6139 319° Northwest 184 212 6,300 -750 Descending Indianapolis Center
Tue 02:10:40 AM 39.5906 -82.6592 317° Northwest 184 212 5,700 -600 Descending Indianapolis Center
Tue 02:11:40 AM 39.6278 -82.7028 318° Northwest 181 208 5,100 -694 Descending Indianapolis Center
Tue 02:12:41 AM 39.6650 -82.7467 318° Northwest 180 207 4,300 -645 Descending Indianapolis Center
Tue 02:13:41 AM 39.7006 -82.7922 315° West 179 206 3,800 -500 Descending Indianapolis Center
Tue 02:14:41 AM 39.7292 -82.8436 306° West 176 203 3,300 -650 Descending Indianapolis Center
Tue 02:15:41 AM 39.7567 -82.8972 304° West 176 203 2,500 -850 Descending Indianapolis Center
Tue 02:16:41 AM 39.7853 -82.9483 306° West 175 201 1,600 -694 Descending Indianapolis Center
Tue 02:17:42 AM 39.8189 -82.9394 11° North 167 192 1,100 -492 Descending Indianapolis Center
Tue 02:19:00 AM 39.8138 -82.9278 142° Southeast  Level Estimated

Login

Don't have an account? Register now (free) for customized features, flight alerts, and more!